QTR4E OTHH-KJFK
Flight info
| Callsign | QTR4E |
|---|---|
| Flight time | N/A |
| Altitude | 34000 |
| Route | TULUB B457 NARMI N697 HIL T540 ENABI L550 NOVPA J981 DATOK L550 GENIV L324 LAKTO DCT OTHON DCT VAXOS DCT RDS UL609 MES DCT DISOR DCT LONTA UL608 DOLEV DCT NIPEL DCT ERKIR/N0489F360 DCT BABEG DCT LIRSU DCT SPI DCT DENUT L610 KOPUL Q60 OKSAW DCT TEWXI DCT VATRY DCT DIGAN DCT DOGAL/M085F360 DCT 54N020W 54N030W 54N040W 53N050W DCT RIKAL/N0487F360 DCT DANOL DCT ENE PARCH3 |
| Aircraft | A35K/H-SDE2E3GHIJ3J4J5LM1ORWXY/LB1D1 |
Departure
| Time | 2026-05-06 20:08 |
|---|---|
| Airport | Hamad International Airport (OTHH) |
Arrival
| Time | N/A |
|---|---|
| Airport | John F. Kennedy International Airport (KJFK) |
| Time | Latitude | Longitude | Altitude | Speed | Heading |
|---|---|---|---|---|---|
| 2026-05-06 19:47 | 25.26872 | 51.61291 | 36 ft | 0 kts | 294° |
| 2026-05-06 19:53 | 25.26865 | 51.61311 | 35 ft | 3 kts | 292° |
| 2026-05-06 19:54 | 25.26857 | 51.61331 | 33 ft | 3 kts | 292° |
| 2026-05-06 19:54 | 25.26849 | 51.61351 | 34 ft | 3 kts | 292° |
| 2026-05-06 19:54 | 25.26842 | 51.61370 | 34 ft | 3 kts | 273° |
| 2026-05-06 19:54 | 25.26844 | 51.61384 | 34 ft | 3 kts | 206° |
| 2026-05-06 19:55 | 25.26851 | 51.61387 | 34 ft | 3 kts | 194° |
| 2026-05-06 19:55 | 25.26855 | 51.61388 | 34 ft | 3 kts | 192° |
| 2026-05-06 19:55 | 25.26864 | 51.61390 | 34 ft | 3 kts | 192° |
| 2026-05-06 19:56 | 25.26881 | 51.61395 | 34 ft | 1 kts | 202° |
| 2026-05-06 19:56 | 25.26886 | 51.61397 | 34 ft | 0 kts | 202° |
| 2026-05-06 19:59 | 25.26885 | 51.61397 | 34 ft | 1 kts | 202° |
| 2026-05-06 19:59 | 25.26879 | 51.61394 | 34 ft | 2 kts | 203° |
| 2026-05-06 20:00 | 25.26860 | 51.61385 | 36 ft | 7 kts | 202° |
| 2026-05-06 20:00 | 25.26780 | 51.61348 | 36 ft | 14 kts | 202° |
| 2026-05-06 20:00 | 25.26684 | 51.61327 | 36 ft | 14 kts | 167° |
| 2026-05-06 20:00 | 25.26589 | 51.61367 | 36 ft | 15 kts | 158° |
| 2026-05-06 20:01 | 25.26491 | 51.61409 | 36 ft | 15 kts | 158° |
| 2026-05-06 20:01 | 25.26400 | 51.61467 | 36 ft | 15 kts | 124° |
| 2026-05-06 20:01 | 25.26410 | 51.61554 | 36 ft | 11 kts | 69° |
| 2026-05-06 20:01 | 25.26445 | 51.61651 | 36 ft | 16 kts | 68° |
| 2026-05-06 20:02 | 25.26486 | 51.61763 | 36 ft | 16 kts | 68° |
| 2026-05-06 20:02 | 25.26528 | 51.61878 | 35 ft | 16 kts | 68° |
| 2026-05-06 20:02 | 25.26557 | 51.61998 | 34 ft | 15 kts | 109° |
| 2026-05-06 20:02 | 25.26484 | 51.62060 | 34 ft | 13 kts | 154° |
| 2026-05-06 20:03 | 25.26399 | 51.62099 | 35 ft | 13 kts | 158° |
| 2026-05-06 20:03 | 25.26312 | 51.62137 | 35 ft | 14 kts | 158° |
| 2026-05-06 20:03 | 25.26220 | 51.62178 | 35 ft | 14 kts | 158° |
| 2026-05-06 20:03 | 25.26125 | 51.62219 | 36 ft | 15 kts | 158° |
| 2026-05-06 20:04 | 25.26027 | 51.62262 | 35 ft | 16 kts | 158° |
| 2026-05-06 20:04 | 25.25923 | 51.62308 | 35 ft | 16 kts | 158° |
| 2026-05-06 20:04 | 25.25816 | 51.62355 | 35 ft | 17 kts | 158° |
| 2026-05-06 20:04 | 25.25703 | 51.62405 | 34 ft | 18 kts | 158° |
| 2026-05-06 20:05 | 25.25588 | 51.62456 | 34 ft | 19 kts | 158° |
| 2026-05-06 20:05 | 25.25528 | 51.62487 | 34 ft | 6 kts | 144° |
| 2026-05-06 20:05 | 25.25514 | 51.62531 | 34 ft | 8 kts | 82° |
| 2026-05-06 20:05 | 25.25533 | 51.62595 | 33 ft | 9 kts | 69° |
| 2026-05-06 20:06 | 25.25567 | 51.62650 | 33 ft | 8 kts | 20° |
| 2026-05-06 20:06 | 25.25623 | 51.62643 | 33 ft | 9 kts | 342° |
| 2026-05-06 20:06 | 25.25636 | 51.62637 | 33 ft | 1 kts | 339° |
| 2026-05-06 20:06 | 25.25645 | 51.62633 | 32 ft | 2 kts | 339° |
| 2026-05-06 20:07 | 25.25735 | 51.62594 | 32 ft | 33 kts | 338° |
| 2026-05-06 20:07 | 25.26163 | 51.62406 | 33 ft | 98 kts | 338° |
| 2026-05-06 20:07 | 25.26984 | 51.62044 | 29 ft | 155 kts | 338° |
| 2026-05-06 20:07 | 25.28101 | 51.61553 | 335 ft | 178 kts | 340° |
| 2026-05-06 20:08 | 25.29262 | 51.61092 | 1040 ft | 180 kts | 341° |
| 2026-05-06 20:08 | 25.30445 | 51.60603 | 1469 ft | 182 kts | 340° |
| 2026-05-06 20:08 | 25.31643 | 51.60056 | 1616 ft | 192 kts | 339° |
| 2026-05-06 20:08 | 25.32982 | 51.59830 | 1743 ft | 201 kts | 6° |
| 2026-05-06 20:09 | 25.34415 | 51.60051 | 1910 ft | 214 kts | 11° |
| 2026-05-06 20:09 | 25.35899 | 51.60380 | 2034 ft | 229 kts | 13° |
| 2026-05-06 20:09 | 25.37502 | 51.60772 | 2215 ft | 243 kts | 13° |
| 2026-05-06 20:09 | 25.39199 | 51.61200 | 2425 ft | 256 kts | 14° |
| 2026-05-06 20:10 | 25.40962 | 51.61651 | 2817 ft | 262 kts | 13° |
| 2026-05-06 20:10 | 25.42748 | 51.62110 | 3299 ft | 264 kts | 13° |
| 2026-05-06 20:10 | 25.44550 | 51.62574 | 3771 ft | 267 kts | 13° |
| 2026-05-06 20:10 | 25.46361 | 51.63039 | 4287 ft | 268 kts | 12° |
| 2026-05-06 20:11 | 25.48187 | 51.63492 | 4770 ft | 269 kts | 12° |
| 2026-05-06 20:11 | 25.50029 | 51.63938 | 5246 ft | 272 kts | 11° |
| 2026-05-06 20:11 | 25.51879 | 51.64385 | 5707 ft | 273 kts | 11° |
| 2026-05-06 20:11 | 25.53744 | 51.64836 | 6205 ft | 274 kts | 11° |
| 2026-05-06 20:12 | 25.55614 | 51.65289 | 6661 ft | 276 kts | 11° |
| 2026-05-06 20:12 | 25.57505 | 51.65707 | 7116 ft | 277 kts | 6° |
| 2026-05-06 20:12 | 25.59408 | 51.65629 | 7561 ft | 278 kts | 350° |
| 2026-05-06 20:12 | 25.61304 | 51.65208 | 8047 ft | 279 kts | 347° |
| 2026-05-06 20:13 | 25.63205 | 51.64730 | 8558 ft | 280 kts | 346° |
| 2026-05-06 20:13 | 25.65116 | 51.64251 | 9052 ft | 282 kts | 347° |
| 2026-05-06 20:13 | 25.67043 | 51.63775 | 9550 ft | 284 kts | 347° |
| 2026-05-06 20:13 | 25.68979 | 51.63301 | 10022 ft | 286 kts | 347° |
| 2026-05-06 20:14 | 25.70964 | 51.62817 | 10272 ft | 298 kts | 347° |
| 2026-05-06 20:14 | 25.72978 | 51.62223 | 10475 ft | 310 kts | 340° |
| 2026-05-06 20:14 | 25.75032 | 51.61335 | 10667 ft | 322 kts | 337° |
| 2026-05-06 20:14 | 25.77135 | 51.60348 | 10887 ft | 334 kts | 337° |
| 2026-05-06 20:15 | 25.79313 | 51.59318 | 11090 ft | 346 kts | 337° |
| 2026-05-06 20:15 | 25.81563 | 51.58255 | 11287 ft | 357 kts | 336° |
| 2026-05-06 20:15 | 25.83782 | 51.56932 | 11469 ft | 368 kts | 324° |
| 2026-05-06 20:15 | 25.85629 | 51.54919 | 11622 ft | 378 kts | 306° |
| 2026-05-06 20:16 | 25.87011 | 51.52390 | 11827 ft | 387 kts | 299° |
| 2026-05-06 20:16 | 25.88285 | 51.49726 | 12153 ft | 392 kts | 298° |
| 2026-05-06 20:16 | 25.89560 | 51.47040 | 12524 ft | 395 kts | 298° |
| 2026-05-06 20:16 | 25.90838 | 51.44363 | 12935 ft | 397 kts | 298° |
| 2026-05-06 20:17 | 25.92158 | 51.41614 | 13357 ft | 400 kts | 298° |
| 2026-05-06 20:17 | 25.93457 | 51.38915 | 13725 ft | 402 kts | 298° |
| 2026-05-06 20:17 | 25.94781 | 51.36169 | 14114 ft | 405 kts | 298° |
| 2026-05-06 20:17 | 25.96117 | 51.33400 | 14502 ft | 407 kts | 298° |
| 2026-05-06 20:18 | 25.97451 | 51.30623 | 14931 ft | 407 kts | 297° |
| 2026-05-06 20:18 | 25.98770 | 51.27819 | 15325 ft | 409 kts | 297° |
| 2026-05-06 20:18 | 26.00090 | 51.24997 | 15661 ft | 413 kts | 297° |
| 2026-05-06 20:18 | 26.01418 | 51.22157 | 16037 ft | 414 kts | 297° |
| 2026-05-06 20:19 | 26.02749 | 51.19310 | 16426 ft | 417 kts | 297° |
| 2026-05-06 20:19 | 26.04076 | 51.16472 | 16820 ft | 418 kts | 297° |
| 2026-05-06 20:19 | 26.05421 | 51.13593 | 17158 ft | 421 kts | 297° |
| 2026-05-06 20:19 | 26.06774 | 51.10694 | 17538 ft | 423 kts | 296° |
| 2026-05-06 20:20 | 26.08136 | 51.07775 | 17875 ft | 426 kts | 296° |
| 2026-05-06 20:20 | 26.09505 | 51.04838 | 18180 ft | 429 kts | 296° |
| 2026-05-06 20:20 | 26.10884 | 51.01878 | 18490 ft | 431 kts | 296° |
| 2026-05-06 20:20 | 26.12214 | 50.98882 | 18853 ft | 432 kts | 294° |
| 2026-05-06 20:21 | 26.13487 | 50.95847 | 19160 ft | 434 kts | 294° |
| 2026-05-06 20:21 | 26.14721 | 50.92819 | 19473 ft | 435 kts | 293° |
| 2026-05-06 20:21 | 26.15963 | 50.89744 | 19813 ft | 437 kts | 293° |
| 2026-05-06 20:21 | 26.17213 | 50.86650 | 20155 ft | 438 kts | 293° |
| 2026-05-06 20:22 | 26.18473 | 50.83546 | 20494 ft | 440 kts | 293° |
| 2026-05-06 20:22 | 26.19742 | 50.80433 | 20831 ft | 441 kts | 292° |
| 2026-05-06 20:22 | 26.21018 | 50.77312 | 21153 ft | 443 kts | 292° |
| 2026-05-06 20:22 | 26.22298 | 50.74185 | 21501 ft | 445 kts | 292° |
| 2026-05-06 20:23 | 26.23582 | 50.71049 | 21839 ft | 446 kts | 292° |
| 2026-05-06 20:23 | 26.24841 | 50.67878 | 22162 ft | 447 kts | 289° |
| 2026-05-06 20:23 | 26.25773 | 50.64582 | 22474 ft | 447 kts | 281° |
| 2026-05-06 20:23 | 26.26402 | 50.61181 | 22747 ft | 448 kts | 278° |
| 2026-05-06 20:24 | 26.26920 | 50.57749 | 23079 ft | 449 kts | 277° |
| 2026-05-06 20:24 | 26.27376 | 50.54303 | 23396 ft | 451 kts | 276° |
| 2026-05-06 20:24 | 26.27806 | 50.50835 | 23701 ft | 452 kts | 276° |
| 2026-05-06 20:24 | 26.28225 | 50.47406 | 24048 ft | 451 kts | 276° |
| 2026-05-06 20:25 | 26.28652 | 50.43944 | 24433 ft | 450 kts | 276° |
| 2026-05-06 20:25 | 26.29083 | 50.40486 | 24717 ft | 451 kts | 276° |
| 2026-05-06 20:25 | 26.29522 | 50.37010 | 24972 ft | 453 kts | 276° |
| 2026-05-06 20:25 | 26.30111 | 50.33560 | 25265 ft | 456 kts | 282° |
| 2026-05-06 20:26 | 26.30913 | 50.30647 | 25522 ft | 458 kts | 286° |
| 2026-05-06 20:26 | 26.32003 | 50.27305 | 25833 ft | 459 kts | 288° |
| 2026-05-06 20:26 | 26.33166 | 50.23978 | 26145 ft | 460 kts | 289° |